Time;durP1;ratioP1;P1;durP2;ratioP2;P2;SDS_P1;SDS_P2;PMS_P1;PMS_P2;Temp;Humidity;BMP_temperature;BMP_pressure;BME280_temperature;BME280_humidity;BME280_pressure;Samples;Min_cycle;Max_cycle;Signal;HPM_P1;HPM_P2
2023/09/26 00:02:03;;;;;;;4.03;3.80;;;11.10;99.90;;;;;;5044759;28;20336;-55
2023/09/26 00:04:33;;;;;;;3.20;3.00;;;11.10;99.90;;;;;;5054270;28;20208;-55
2023/09/26 00:07:02;;;;;;;3.03;2.83;;;11.10;99.90;;;;;;5036883;28;20215;-54
2023/09/26 00:09:33;;;;;;;3.10;3.00;;;11.30;99.90;;;;;;5024892;28;20222;-54
2023/09/26 00:12:00;;;;;;;2.03;1.93;;;11.30;99.90;;;;;;5033226;28;20209;-54
2023/09/26 00:14:27;;;;;;;3.00;2.70;;;11.30;99.90;;;;;;5026620;28;20288;-55
2023/09/26 00:16:54;;;;;;;2.63;2.50;;;11.40;99.90;;;;;;5026045;28;20202;-54
2023/09/26 00:19:21;;;;;;;2.80;2.70;;;11.30;99.90;;;;;;5025308;28;20230;-55
2023/09/26 00:21:49;;;;;;;3.87;3.20;;;11.30;99.90;;;;;;5033738;28;20202;-53
2023/09/26 00:24:18;;;;;;;3.27;2.97;;;11.20;99.90;;;;;;5031846;28;20201;-54
2023/09/26 00:26:45;;;;;;;3.57;3.27;;;11.20;99.90;;;;;;5032256;28;20407;-55
2023/09/26 00:29:12;;;;;;;2.87;2.63;;;11.20;99.90;;;;;;5032606;28;20665;-54
2023/09/26 00:31:39;;;;;;;4.73;3.40;;;11.20;99.90;;;;;;5032865;28;20255;-54
2023/09/26 00:34:06;;;;;;;3.37;3.07;;;11.10;99.90;;;;;;5026689;28;20201;-55
2023/09/26 00:36:33;;;;;;;3.13;2.93;;;11.10;99.90;;;;;;5029693;28;20211;-54
2023/09/26 00:39:00;;;;;;;2.73;2.57;;;11.00;99.90;;;;;;5029522;28;20222;-54
2023/09/26 00:41:28;;;;;;;2.13;2.03;;;11.00;99.90;;;;;;5035288;28;20204;-53
2023/09/26 00:43:55;;;;;;;3.40;3.20;;;11.00;99.90;;;;;;5034541;28;20263;-55
2023/09/26 00:46:22;;;;;;;2.90;2.70;;;10.90;99.90;;;;;;5038175;28;20198;-54
2023/09/26 00:48:49;;;;;;;3.80;2.33;;;10.90;99.90;;;;;;5033009;28;20615;-55
2023/09/26 00:51:16;;;;;;;2.13;2.03;;;10.90;99.90;;;;;;5032315;28;20201;-54
2023/09/26 00:53:44;;;;;;;2.17;2.00;;;10.90;99.90;;;;;;5032233;28;20564;-54
2023/09/26 00:56:11;;;;;;;2.77;2.57;;;10.90;99.90;;;;;;5024120;28;20208;-54
2023/09/26 00:58:40;;;;;;;2.50;2.30;;;10.90;99.90;;;;;;5031206;28;20598;-55
2023/09/26 01:01:08;;;;;;;3.37;2.17;;;10.90;99.90;;;;;;5033035;28;20201;-54
2023/09/26 01:03:35;;;;;;;3.17;2.87;;;10.90;99.90;;;;;;5029094;28;20204;-54
2023/09/26 01:06:03;;;;;;;2.63;2.40;;;10.80;99.90;;;;;;5025889;28;20636;-54
2023/09/26 01:08:31;;;;;;;2.30;2.10;;;10.80;99.90;;;;;;5027440;28;20260;-54
2023/09/26 01:10:58;;;;;;;2.87;2.67;;;10.90;99.90;;;;;;5032665;28;20292;-55
2023/09/26 01:13:25;;;;;;;2.23;2.10;;;10.90;99.90;;;;;;5025308;28;20285;-54
2023/09/26 01:15:53;;;;;;;3.00;2.70;;;11.00;99.90;;;;;;5031654;28;20202;-55
2023/09/26 01:18:23;;;;;;;3.13;3.03;;;11.00;99.90;;;;;;5030157;28;20221;-54
2023/09/26 01:20:51;;;;;;;3.57;3.20;;;11.00;99.90;;;;;;5031720;28;20661;-55
2023/09/26 01:23:22;;;;;;;3.27;3.13;;;10.90;99.90;;;;;;5030625;28;20288;-55
2023/09/26 01:25:51;;;;;;;3.40;3.20;;;10.90;99.90;;;;;;5033189;28;20268;-55
2023/09/26 01:28:18;;;;;;;3.40;3.20;;;10.90;99.90;;;;;;5052393;28;20224;-54
2023/09/26 01:30:47;;;;;;;3.03;2.73;;;10.80;99.90;;;;;;5042158;28;20204;-55
2023/09/26 01:33:16;;;;;;;3.63;2.73;;;10.80;99.90;;;;;;5044087;28;20196;-55
2023/09/26 01:35:44;;;;;;;3.17;2.97;;;10.70;99.90;;;;;;5052413;28;20207;-55
2023/09/26 01:38:11;;;;;;;2.80;2.60;;;10.60;99.90;;;;;;5039616;28;20244;-55
2023/09/26 01:40:38;;;;;;;2.43;2.33;;;10.60;99.90;;;;;;5039578;28;20250;-55
2023/09/26 01:43:07;;;;;;;2.10;2.00;;;10.50;99.90;;;;;;5043166;28;20225;-55
2023/09/26 01:45:34;;;;;;;2.10;2.00;;;10.50;99.90;;;;;;5052376;28;20243;-55
2023/09/26 01:48:04;;;;;;;3.33;2.47;;;10.50;99.90;;;;;;5045418;28;20384;-55
2023/09/26 01:50:31;;;;;;;2.60;2.40;;;10.50;99.90;;;;;;5043780;28;20200;-54
2023/09/26 01:52:58;;;;;;;3.13;2.83;;;10.40;99.90;;;;;;5043354;28;20280;-54
2023/09/26 01:55:25;;;;;;;2.70;2.50;;;10.40;99.90;;;;;;5030462;28;20212;-55
2023/09/26 01:57:52;;;;;;;2.57;2.47;;;10.30;99.90;;;;;;5049352;28;20192;-55
2023/09/26 02:00:20;;;;;;;3.97;2.37;;;10.30;99.90;;;;;;5050978;28;20679;-55
2023/09/26 02:02:49;;;;;;;2.80;2.70;;;10.30;99.90;;;;;;5052035;28;20212;-54
2023/09/26 02:05:17;;;;;;;2.63;2.53;;;10.30;99.90;;;;;;5047759;28;20298;-54
2023/09/26 02:07:45;;;;;;;3.10;2.90;;;10.30;99.90;;;;;;5043362;28;20212;-54
2023/09/26 02:10:12;;;;;;;3.33;2.97;;;10.30;99.90;;;;;;5046014;28;20596;-55
2023/09/26 02:12:40;;;;;;;2.47;2.37;;;10.30;99.90;;;;;;5043530;28;20198;-54
2023/09/26 02:15:09;;;;;;;3.63;3.40;;;10.30;99.90;;;;;;5051788;28;20235;-55
2023/09/26 02:17:38;;;;;;;2.97;2.77;;;10.30;99.90;;;;;;5044228;28;20653;-54
2023/09/26 02:20:10;;;;;;;2.70;2.50;;;10.20;99.90;;;;;;5039324;28;20234;-54
2023/09/26 02:22:37;;;;;;;3.67;3.27;;;10.20;99.90;;;;;;5040003;28;20212;-54
2023/09/26 02:25:05;;;;;;;3.53;3.30;;;10.20;99.90;;;;;;5050964;28;20279;-54
2023/09/26 02:27:32;;;;;;;2.73;2.53;;;10.20;99.90;;;;;;5041483;28;20204;-54
2023/09/26 02:29:59;;;;;;;2.60;2.50;;;10.20;99.90;;;;;;5037185;28;20266;-55
2023/09/26 02:32:26;;;;;;;2.73;2.63;;;10.20;99.90;;;;;;5033947;28;20236;-55
2023/09/26 02:34:54;;;;;;;2.30;2.20;;;10.10;99.90;;;;;;5031523;28;20259;-54
2023/09/26 02:37:21;;;;;;;4.47;3.13;;;10.20;99.90;;;;;;5031169;28;20201;-55
2023/09/26 02:39:49;;;;;;;3.00;2.80;;;10.20;99.90;;;;;;5031309;28;20286;-55
2023/09/26 02:42:16;;;;;;;2.30;2.20;;;10.20;99.90;;;;;;5029898;28;20201;-55
2023/09/26 02:44:43;;;;;;;2.87;2.57;;;10.10;99.90;;;;;;5038373;28;20201;-54
2023/09/26 02:47:10;;;;;;;3.87;2.47;;;10.10;99.90;;;;;;5037541;28;20197;-55
2023/09/26 02:49:37;;;;;;;2.90;2.70;;;10.00;99.90;;;;;;5042757;28;20221;-54
2023/09/26 02:52:05;;;;;;;2.70;2.50;;;10.00;99.90;;;;;;5051163;28;20204;-55
2023/09/26 02:54:36;;;;;;;3.30;2.80;;;10.00;99.90;;;;;;5049869;28;20212;-55
2023/09/26 02:57:03;;;;;;;2.33;2.23;;;10.00;99.90;;;;;;5038143;28;20239;-56
2023/09/26 02:59:33;;;;;;;2.90;2.70;;;10.00;99.90;;;;;;5045419;28;20222;-55
2023/09/26 03:02:00;;;;;;;2.20;2.13;;;10.10;99.90;;;;;;5040456;28;20770;-54
2023/09/26 03:04:27;;;;;;;2.73;2.47;;;10.00;99.90;;;;;;5042580;28;20192;-54
2023/09/26 03:06:54;;;;;;;2.10;2.00;;;10.00;99.90;;;;;;5050622;28;20213;-55
2023/09/26 03:09:23;;;;;;;4.00;2.83;;;10.00;99.90;;;;;;5039263;28;20225;-54
2023/09/26 03:11:49;;;;;;;2.40;2.20;;;10.00;99.90;;;;;;5047858;28;20196;-55
2023/09/26 03:14:18;;;;;;;3.10;2.80;;;9.90;99.90;;;;;;5051158;28;20207;-55
2023/09/26 03:16:45;;;;;;;2.33;2.23;;;9.90;99.90;;;;;;5049647;28;20207;-55
2023/09/26 03:19:12;;;;;;;2.60;2.50;;;9.90;99.90;;;;;;5028329;28;20218;-55
2023/09/26 03:21:39;;;;;;;3.00;2.70;;;9.90;99.90;;;;;;5037150;28;20209;-55
2023/09/26 03:24:06;;;;;;;2.07;1.97;;;9.90;99.90;;;;;;5031551;28;20194;-54
2023/09/26 03:26:34;;;;;;;3.20;3.00;;;9.90;99.90;;;;;;5030672;28;20282;-54
2023/09/26 03:29:01;;;;;;;2.80;2.57;;;9.90;99.90;;;;;;5030760;28;20228;-54
2023/09/26 03:31:28;;;;;;;3.47;3.07;;;9.90;99.90;;;;;;5030825;28;20680;-55
2023/09/26 03:33:55;;;;;;;2.43;2.33;;;9.80;99.90;;;;;;5033899;28;20682;-54
2023/09/26 03:36:22;;;;;;;4.57;3.33;;;9.80;99.90;;;;;;5035285;28;20193;-55
2023/09/26 03:38:50;;;;;;;2.70;2.60;;;9.80;99.90;;;;;;5033483;28;20774;-54
2023/09/26 03:41:17;;;;;;;3.93;3.73;;;9.80;99.90;;;;;;5030688;28;20743;-54
2023/09/26 03:43:46;;;;;;;2.17;2.17;;;9.80;99.90;;;;;;5030953;28;20251;-56
2023/09/26 03:46:13;;;;;;;3.17;2.83;;;9.80;99.90;;;;;;5037251;28;20285;-55
2023/09/26 03:48:40;;;;;;;2.53;2.43;;;9.80;99.90;;;;;;5046380;28;20254;-55
2023/09/26 03:51:11;;;;;;;3.10;3.00;;;9.70;99.90;;;;;;5046760;28;20212;-55
2023/09/26 03:53:38;;;;;;;2.70;2.60;;;9.70;99.90;;;;;;5032103;28;20213;-54
2023/09/26 03:56:05;;;;;;;3.00;2.80;;;9.80;99.90;;;;;;5040970;28;20263;-55
2023/09/26 03:58:33;;;;;;;2.93;2.73;;;9.70;99.90;;;;;;5039795;28;20221;-56
2023/09/26 04:01:10;;;;;;;3.80;3.40;;;9.70;99.90;;;;;;5047929;28;20202;-55
2023/09/26 04:03:37;;;;;;;3.20;3.00;;;9.60;99.90;;;;;;5050328;28;20299;-55
2023/09/26 04:06:05;;;;;;;5.10;3.73;;;9.70;99.90;;;;;;5049042;28;20250;-54
2023/09/26 04:08:32;;;;;;;4.10;3.90;;;9.60;99.90;;;;;;5044488;28;20285;-54
2023/09/26 04:10:59;;;;;;;4.50;4.17;;;9.60;99.90;;;;;;5031114;28;20259;-55
2023/09/26 04:13:26;;;;;;;3.50;3.27;;;9.60;99.90;;;;;;5036834;28;20287;-55
2023/09/26 04:15:53;;;;;;;3.10;2.90;;;9.60;99.90;;;;;;5030222;28;20205;-54
2023/09/26 04:18:22;;;;;;;3.97;3.47;;;9.60;99.90;;;;;;5053586;23;20316;-57
2023/09/26 04:20:50;;;;;;;3.73;3.50;;;9.60;99.90;;;;;;5072381;28;20640;-58
2023/09/26 04:23:17;;;;;;;3.00;2.80;;;9.60;99.90;;;;;;5069328;28;20283;-57
2023/09/26 04:25:45;;;;;;;3.57;3.33;;;9.60;99.90;;;;;;5071723;28;20207;-57
2023/09/26 04:28:12;;;;;;;3.50;2.67;;;9.60;99.90;;;;;;5078655;28;20316;-57
2023/09/26 04:30:39;;;;;;;3.93;3.63;;;9.60;99.90;;;;;;5093343;28;20335;-58
2023/09/26 04:33:07;;;;;;;3.63;3.43;;;9.60;99.90;;;;;;5074708;28;20207;-57
2023/09/26 04:35:36;;;;;;;3.00;2.70;;;9.60;99.90;;;;;;5077338;28;20214;-57
2023/09/26 04:38:04;;;;;;;3.73;3.33;;;9.50;99.90;;;;;;5074530;28;20248;-57
2023/09/26 04:40:31;;;;;;;5.33;2.77;;;9.50;99.90;;;;;;5075020;28;20789;-57
2023/09/26 04:43:04;;;;;;;3.03;2.83;;;9.60;99.90;;;;;;5077674;28;20230;-57
2023/09/26 04:45:31;;;;;;;3.20;2.90;;;9.50;99.90;;;;;;5079406;28;20203;-57
2023/09/26 04:48:00;;;;;;;2.67;2.47;;;9.50;99.90;;;;;;5073948;28;20299;-57
2023/09/26 04:50:28;;;;;;;2.73;2.60;;;9.50;99.90;;;;;;5079046;28;20312;-57
2023/09/26 04:52:57;;;;;;;3.63;3.30;;;9.50;99.90;;;;;;5074030;28;20282;-57
2023/09/26 04:55:24;;;;;;;3.27;2.50;;;9.60;99.90;;;;;;5084952;28;20626;-57
2023/09/26 04:57:51;;;;;;;3.20;3.00;;;9.60;99.90;;;;;;5079193;28;20626;-58
2023/09/26 05:00:19;;;;;;;2.93;2.67;;;9.50;99.90;;;;;;5076537;28;20622;-58
2023/09/26 05:02:46;;;;;;;2.43;2.27;;;9.50;99.90;;;;;;5071016;28;20281;-57
2023/09/26 05:05:14;;;;;;;2.30;2.10;;;9.60;99.90;;;;;;5073823;28;20579;-57
2023/09/26 05:07:43;;;;;;;2.73;2.53;;;9.60;99.90;;;;;;5082684;28;20722;-57
2023/09/26 05:10:13;;;;;;;2.60;2.50;;;9.60;99.90;;;;;;5072082;28;20369;-57
2023/09/26 05:12:41;;;;;;;3.33;3.13;;;9.60;99.90;;;;;;5075943;28;20207;-57
2023/09/26 05:15:12;;;;;;;3.23;3.10;;;9.50;99.90;;;;;;5072585;28;20288;-57
2023/09/26 05:17:41;;;;;;;3.23;3.03;;;9.50;99.90;;;;;;5072434;28;20203;-57
2023/09/26 05:20:10;;;;;;;4.97;4.40;;;9.50;99.90;;;;;;5072815;28;20352;-57
2023/09/26 05:22:38;;;;;;;4.73;4.40;;;9.60;99.90;;;;;;5072037;28;20293;-57
2023/09/26 05:25:06;;;;;;;4.37;4.07;;;9.60;99.90;;;;;;5074003;28;20317;-57
2023/09/26 05:27:35;;;;;;;4.07;3.77;;;9.60;99.90;;;;;;5071687;28;20208;-57
2023/09/26 05:30:02;;;;;;;3.10;2.90;;;9.60;99.90;;;;;;5077692;28;20221;-57
2023/09/26 05:32:29;;;;;;;3.73;3.40;;;9.60;99.90;;;;;;5078792;28;20203;-57
2023/09/26 05:34:57;;;;;;;5.33;3.27;;;9.60;99.90;;;;;;5075098;28;20635;-57
2023/09/26 05:37:24;;;;;;;3.83;3.53;;;9.60;99.90;;;;;;5073677;28;20624;-58
2023/09/26 05:39:51;;;;;;;2.67;2.57;;;9.60;99.90;;;;;;5080982;28;20232;-57
2023/09/26 05:42:18;;;;;;;4.87;2.93;;;9.50;99.90;;;;;;5084242;28;20203;-57
2023/09/26 05:44:46;;;;;;;3.93;3.53;;;9.50;99.90;;;;;;5100171;28;20216;-57
2023/09/26 05:47:13;;;;;;;3.10;2.97;;;9.50;99.90;;;;;;5085376;28;20196;-57
2023/09/26 05:49:40;;;;;;;4.13;3.83;;;9.50;99.90;;;;;;5075722;28;20226;-57
2023/09/26 05:52:07;;;;;;;4.13;3.73;;;9.60;99.90;;;;;;5073254;28;20253;-57
2023/09/26 05:54:34;;;;;;;3.70;3.40;;;9.60;99.90;;;;;;5071767;28;20201;-57
2023/09/26 05:57:03;;;;;;;3.53;3.37;;;9.70;99.90;;;;;;5079874;28;20214;-57
2023/09/26 05:59:30;;;;;;;4.80;4.50;;;9.70;99.90;;;;;;5075915;28;20602;-57
2023/09/26 06:01:58;;;;;;;10.40;3.37;;;9.80;99.90;;;;;;5075321;28;20201;-57
2023/09/26 06:04:25;;;;;;;5.53;3.97;;;9.80;99.90;;;;;;5081787;28;20196;-57
2023/09/26 06:06:52;;;;;;;3.87;3.57;;;10.00;99.90;;;;;;5074836;28;20324;-57
2023/09/26 06:09:20;;;;;;;7.00;6.47;;;9.90;99.90;;;;;;5071332;28;20248;-57
2023/09/26 06:11:47;;;;;;;4.13;3.80;;;10.40;99.90;;;;;;5069890;28;20215;-57
2023/09/26 06:14:14;;;;;;;5.47;4.30;;;11.00;99.90;;;;;;5080771;28;20199;-57
2023/09/26 06:16:41;;;;;;;3.90;3.47;;;11.40;99.90;;;;;;5077660;28;20241;-57
2023/09/26 06:19:09;;;;;;;2.73;2.60;;;11.50;99.90;;;;;;5069694;28;20223;-57
2023/09/26 06:21:36;;;;;;;3.67;3.40;;;11.60;99.90;;;;;;5082047;28;20208;-57
2023/09/26 06:24:05;;;;;;;4.63;3.40;;;11.70;99.90;;;;;;5071855;28;20445;-58
2023/09/26 06:26:32;;;;;;;2.87;2.77;;;11.60;99.90;;;;;;5084186;28;20671;-61
2023/09/26 06:28:59;;;;;;;3.10;2.90;;;11.60;99.90;;;;;;5072622;28;20663;-62
2023/09/26 06:31:26;;;;;;;3.83;2.40;;;11.70;99.90;;;;;;5086750;28;20268;-62
2023/09/26 06:33:54;;;;;;;2.90;2.67;;;11.60;99.90;;;;;;5080986;28;20206;-60
2023/09/26 06:36:22;;;;;;;5.33;2.70;;;11.70;99.90;;;;;;5082692;28;20302;-61
2023/09/26 06:38:49;;;;;;;6.20;3.43;;;11.70;99.90;;;;;;5072610;28;20273;-61
2023/09/26 06:41:16;;;;;;;4.47;4.13;;;11.70;99.90;;;;;;5090371;28;20197;-62
2023/09/26 06:43:43;;;;;;;4.07;2.67;;;11.80;99.90;;;;;;5080961;28;20251;-62
2023/09/26 06:46:10;;;;;;;2.53;2.33;;;11.80;99.90;;;;;;5079523;28;20203;-62
2023/09/26 06:48:38;;;;;;;4.13;2.73;;;11.90;99.90;;;;;;5076428;28;20225;-63
2023/09/26 06:51:05;;;;;;;3.03;2.83;;;12.00;99.90;;;;;;5080840;28;20635;-63
2023/09/26 06:53:34;;;;;;;3.57;2.90;;;12.00;99.90;;;;;;5090639;28;20206;-63
2023/09/26 06:56:02;;;;;;;2.53;2.33;;;12.10;99.90;;;;;;5083893;28;20269;-63
2023/09/26 06:58:29;;;;;;;4.67;2.53;;;12.20;99.90;;;;;;5076967;28;20225;-65
2023/09/26 07:00:56;;;;;;;9.77;3.10;;;12.30;99.90;;;;;;5070667;28;20199;-65
2023/09/26 07:03:23;;;;;;;3.13;2.90;;;12.40;99.90;;;;;;5083913;28;20277;-64
2023/09/26 07:05:50;;;;;;;4.77;2.90;;;12.50;99.90;;;;;;5090583;28;20257;-61
2023/09/26 07:08:17;;;;;;;3.00;2.80;;;12.50;99.90;;;;;;5082249;28;20192;-62
2023/09/26 07:10:45;;;;;;;3.53;2.53;;;12.50;99.90;;;;;;5089620;28;20219;-61
2023/09/26 07:13:13;;;;;;;3.23;3.03;;;12.60;99.90;;;;;;5075510;28;20665;-62
2023/09/26 07:15:41;;;;;;;3.00;2.80;;;12.70;99.90;;;;;;5085567;28;20228;-62
2023/09/26 07:18:10;;;;;;;3.73;3.57;;;12.80;99.90;;;;;;5082589;28;20205;-63
2023/09/26 07:20:38;;;;;;;3.67;3.53;;;12.90;99.90;;;;;;5090154;28;20224;-62
2023/09/26 07:23:05;;;;;;;4.70;4.40;;;13.10;99.90;;;;;;5090397;28;20200;-62
2023/09/26 07:25:32;;;;;;;4.17;3.80;;;13.20;99.90;;;;;;5080174;28;20686;-62
2023/09/26 07:28:01;;;;;;;4.60;4.30;;;13.30;99.90;;;;;;5079168;28;20227;-63
2023/09/26 07:30:27;;;;;;;4.27;4.07;;;13.50;99.90;;;;;;5084768;28;20289;-60
2023/09/26 07:32:54;;;;;;;6.10;5.60;;;13.50;99.90;;;;;;5090308;28;20253;-63
2023/09/26 07:35:23;;;;;;;7.53;7.03;;;13.60;99.90;;;;;;5088731;28;20336;-62
2023/09/26 07:37:50;;;;;;;6.93;6.33;;;13.80;99.90;;;;;;5081454;28;20228;-61
2023/09/26 07:40:17;;;;;;;7.37;6.83;;;14.00;99.90;;;;;;5079141;28;20647;-56
2023/09/26 07:42:44;;;;;;;7.40;6.80;;;14.20;99.90;;;;;;5090395;28;20204;-63
2023/09/26 07:45:16;;;;;;;8.97;8.10;;;14.50;99.90;;;;;;5087531;28;20287;-64
2023/09/26 07:47:44;;;;;;;9.20;8.20;;;14.90;99.90;;;;;;5091554;28;20321;-64
2023/09/26 07:50:10;;;;;;;9.50;8.70;;;15.10;99.90;;;;;;5078152;28;20319;-64
2023/09/26 07:52:38;;;;;;;10.53;9.63;;;15.30;99.90;;;;;;5096584;28;20278;-64
2023/09/26 07:55:06;;;;;;;9.13;8.20;;;15.10;99.90;;;;;;5091944;28;20736;-64
2023/09/26 07:57:33;;;;;;;10.33;9.43;;;15.10;99.90;;;;;;5093864;28;20210;-65
2023/09/26 08:00:00;;;;;;;10.83;9.73;;;15.10;99.90;;;;;;5090070;28;20399;-64
2023/09/26 08:02:28;;;;;;;10.00;9.17;;;15.00;99.90;;;;;;5083060;28;20247;-64
2023/09/26 08:04:55;;;;;;;8.73;7.83;;;15.10;99.90;;;;;;5075729;28;20266;-63
2023/09/26 08:07:22;;;;;;;8.70;7.20;;;15.00;99.90;;;;;;5078951;28;20261;-64
2023/09/26 08:09:49;;;;;;;8.20;7.60;;;15.10;99.90;;;;;;5085408;28;20700;-64
2023/09/26 08:12:16;;;;;;;7.27;6.77;;;15.20;99.90;;;;;;5098387;28;20208;-63
2023/09/26 08:14:42;;;;;;;8.10;7.37;;;15.50;99.90;;;;;;5087759;28;20622;-62
2023/09/26 08:17:09;;;;;;;8.63;7.70;;;15.80;99.90;;;;;;5078747;28;20204;-63
2023/09/26 08:19:38;;;;;;;7.77;7.07;;;16.20;99.90;;;;;;5080050;28;20776;-64
2023/09/26 08:22:05;;;;;;;6.97;6.57;;;16.80;99.90;;;;;;5094498;28;20266;-65
2023/09/26 08:24:33;;;;;;;7.27;6.63;;;17.70;99.90;;;;;;5091576;28;20200;-65
2023/09/26 08:27:00;;;;;;;5.27;5.00;;;18.50;99.90;;;;;;5104465;28;20269;-65
2023/09/26 08:29:27;;;;;;;6.20;5.80;;;19.20;99.90;;;;;;5089515;28;20213;-63
2023/09/26 08:31:54;;;;;;;5.13;4.83;;;20.00;99.90;;;;;;5087661;28;20253;-64
2023/09/26 08:34:22;;;;;;;6.40;6.00;;;20.40;99.90;;;;;;5088978;28;20234;-64
2023/09/26 08:36:51;;;;;;;6.10;5.70;;;21.30;99.90;;;;;;5102233;28;20207;-63
2023/09/26 08:39:18;;;;;;;4.80;4.60;;;21.90;99.90;;;;;;5083502;28;20666;-62
2023/09/26 08:41:45;;;;;;;4.67;4.23;;;22.50;99.90;;;;;;5086164;28;20205;-64
2023/09/26 08:44:13;;;;;;;5.53;5.13;;;22.80;99.90;;;;;;5089663;28;20239;-56
2023/09/26 08:46:41;;;;;;;6.70;6.20;;;23.30;99.90;;;;;;5084068;28;20200;-61
2023/09/26 08:49:09;;;;;;;4.60;4.30;;;23.50;99.90;;;;;;5092496;28;20224;-60
2023/09/26 08:51:36;;;;;;;4.27;4.10;;;24.20;99.90;;;;;;5092803;28;20315;-60
2023/09/26 08:54:05;;;;;;;3.73;3.63;;;24.30;99.90;;;;;;5092394;28;20204;-61
2023/09/26 08:56:33;;;;;;;4.70;4.40;;;24.00;99.90;;;;;;5084635;28;20207;-61
2023/09/26 08:59:02;;;;;;;4.67;4.27;;;24.00;99.90;;;;;;5080598;28;20224;-65
2023/09/26 09:01:30;;;;;;;3.73;3.63;;;24.00;99.90;;;;;;5090448;28;20204;-65
2023/09/26 09:03:57;;;;;;;4.07;3.83;;;23.90;99.90;;;;;;5089881;28;20739;-65
2023/09/26 09:06:25;;;;;;;4.37;4.07;;;24.30;99.90;;;;;;5092026;28;20671;-66
2023/09/26 09:09:09;;;;;;;3.93;3.73;;;24.90;99.90;;;;;;5092530;28;20224;-66
2023/09/26 09:11:36;;;;;;;2.80;2.70;;;24.80;99.90;;;;;;5083633;28;20307;-65
2023/09/26 09:14:03;;;;;;;4.03;3.83;;;25.00;99.90;;;;;;5080063;28;20611;-65
2023/09/26 09:16:30;;;;;;;3.47;3.37;;;24.80;99.90;;;;;;5091859;28;20682;-66
2023/09/26 09:18:58;;;;;;;4.57;4.33;;;24.90;99.90;;;;;;5091766;28;20228;-66
2023/09/26 09:21:30;;;;;;;9.13;4.30;;;24.30;99.90;;;;;;5092264;28;20727;-65
2023/09/26 09:23:58;;;;;;;5.30;3.47;;;24.50;99.90;;;;;;5092284;28;20207;-66
2023/09/26 09:26:31;;;;;;;3.93;3.70;;;24.40;99.90;;;;;;5082623;28;20205;-65
2023/09/26 09:29:15;;;;;;;2.97;2.87;;;24.80;99.90;;;;;;5087202;28;20837;-63
2023/09/26 09:31:42;;;;;;;3.40;3.20;;;24.90;99.90;;;;;;5084391;28;20223;-64
2023/09/26 09:34:10;;;;;;;2.90;2.80;;;24.40;99.90;;;;;;5091981;28;20208;-63
2023/09/26 09:36:38;;;;;;;2.60;2.50;;;24.00;99.90;;;;;;5089370;28;20632;-63
2023/09/26 09:39:09;;;;;;;3.23;2.90;;;24.20;99.90;;;;;;5085999;28;20221;-66
2023/09/26 09:41:39;;;;;;;3.10;2.90;;;24.90;99.90;;;;;;5079971;28;20280;-65
2023/09/26 09:44:06;;;;;;;4.50;3.43;;;25.50;99.90;;;;;;5071557;28;20209;-65
2023/09/26 09:46:35;;;;;;;3.00;2.90;;;25.50;99.90;;;;;;5079011;28;20625;-65
2023/09/26 09:49:04;;;;;;;2.65;2.55;;;25.30;99.90;;;;;;5074803;28;20278;-64
2023/09/26 09:51:32;;;;;;;3.13;2.93;;;25.50;99.90;;;;;;5077682;28;20248;-65
2023/09/26 09:54:01;;;;;;;2.43;2.33;;;25.40;99.90;;;;;;5073754;28;20215;-65
2023/09/26 09:56:36;;;;;;;2.80;2.65;;;26.10;99.90;;;;;;5077831;28;20247;-66
2023/09/26 09:59:12;;;;;;;2.28;2.17;;;25.80;99.90;;;;;;5071077;28;20700;-64
2023/09/26 10:01:45;;;;;;;2.60;2.40;;;26.10;99.90;;;;;;5079126;28;20204;-65
2023/09/26 10:04:13;;;;;;;2.50;2.40;;;26.50;99.90;;;;;;5085580;28;20673;-65
2023/09/26 10:06:42;;;;;;;2.08;1.98;;;26.40;99.90;;;;;;5091098;28;20211;-64
2023/09/26 10:09:10;;;;;;;1.95;1.85;;;26.20;99.90;;;;;;5073038;28;20228;-64
2023/09/26 10:11:38;;;;;;;4.15;2.78;;;26.50;99.90;;;;;;5091331;28;20568;-64
2023/09/26 10:14:11;;;;;;;2.50;2.35;;;26.90;99.90;;;;;;5091248;28;20212;-66
2023/09/26 10:16:38;;;;;;;2.30;2.25;;;27.00;99.90;;;;;;5089329;28;20831;-58
2023/09/26 10:19:05;;;;;;;2.38;2.17;;;26.50;99.90;;;;;;5123685;23;20281;-54
2023/09/26 10:21:33;;;;;;;2.70;2.50;;;26.00;99.90;;;;;;5013594;28;20206;-55
2023/09/26 10:24:29;;;;;;;3.38;2.05;;;26.30;99.90;;;;;;5009738;28;20207;-54
2023/09/26 10:27:05;;;;;;;3.08;2.95;;;26.30;99.90;;;;;;5007838;28;20292;-53
2023/09/26 10:29:38;;;;;;;4.73;4.53;;;26.50;99.90;;;;;;5009598;28;20244;-53
2023/09/26 10:32:07;;;;;;;3.00;2.90;;;26.20;99.90;;;;;;5022115;28;20776;-52
2023/09/26 10:34:37;;;;;;;6.20;5.72;;;26.40;99.90;;;;;;5017259;28;20700;-52
2023/09/26 10:37:07;;;;;;;7.07;6.43;;;25.80;99.90;;;;;;5030802;28;20257;-52
2023/09/26 10:39:36;;;;;;;8.43;7.60;;;25.30;99.90;;;;;;5030984;28;20230;-52
2023/09/26 10:42:11;;;;;;;6.87;6.47;;;24.80;99.90;;;;;;5031379;28;20203;-52
2023/09/26 10:44:40;;;;;;;8.37;7.53;;;24.20;99.90;;;;;;5031189;28;20788;-52
2023/09/26 10:47:07;;;;;;;9.13;8.23;;;23.90;99.90;;;;;;5028433;28;20252;-52
2023/09/26 10:49:36;;;;;;;7.17;6.67;;;23.20;99.90;;;;;;5021868;28;20756;-53
2023/09/26 10:52:03;;;;;;;9.10;8.50;;;23.00;99.90;;;;;;5031079;28;20222;-53
2023/09/26 10:54:32;;;;;;;10.23;8.60;;;22.80;99.90;;;;;;5031146;28;20202;-54
2023/09/26 10:57:00;;;;;;;8.77;8.17;;;22.50;99.90;;;;;;5029833;28;20210;-53
2023/09/26 10:59:32;;;;;;;8.87;8.37;;;22.40;99.90;;;;;;5030420;28;20800;-54
2023/09/26 11:02:02;;;;;;;7.93;7.37;;;22.00;99.90;;;;;;5022079;28;20292;-54
2023/09/26 11:04:31;;;;;;;9.13;8.40;;;21.90;99.90;;;;;;5011176;28;20207;-55
2023/09/26 11:06:59;;;;;;;7.17;6.73;;;21.70;99.90;;;;;;5011020;28;20226;-54
2023/09/26 11:09:26;;;;;;;8.37;7.87;;;21.80;99.90;;;;;;5011343;28;20289;-52
2023/09/26 11:11:55;;;;;;;9.07;8.43;;;21.60;99.90;;;;;;5025563;28;20305;-53
2023/09/26 11:14:22;;;;;;;9.80;9.00;;;21.30;99.90;;;;;;5024324;28;20203;-54
2023/09/26 11:16:49;;;;;;;8.20;7.63;;;21.00;99.90;;;;;;5027847;28;20202;-55
2023/09/26 11:19:17;;;;;;;7.50;6.87;;;20.90;99.90;;;;;;5030487;28;20774;-53
2023/09/26 11:21:44;;;;;;;8.43;7.93;;;21.00;99.90;;;;;;5030651;28;20302;-53
2023/09/26 11:24:22;;;;;;;8.87;8.10;;;21.00;99.90;;;;;;5030259;28;20249;-54
2023/09/26 11:26:52;;;;;;;10.40;9.70;;;21.00;99.90;;;;;;5030348;28;20198;-53
2023/09/26 11:29:20;;;;;;;10.93;10.13;;;20.90;99.90;;;;;;5030225;28;20278;-53
2023/09/26 11:31:48;;;;;;;12.83;11.73;;;20.80;99.90;;;;;;5030236;28;20250;-52
2023/09/26 11:34:18;;;;;;;10.10;9.40;;;20.70;99.90;;;;;;5033441;28;20289;-53
2023/09/26 11:36:45;;;;;;;9.57;8.80;;;20.60;99.90;;;;;;5032575;28;20289;-52
2023/09/26 11:39:15;;;;;;;11.53;10.73;;;20.50;99.90;;;;;;5034046;28;20520;-53
2023/09/26 11:41:42;;;;;;;9.80;8.97;;;20.40;99.90;;;;;;5034377;28;20207;-53
2023/09/26 11:44:10;;;;;;;10.70;9.90;;;20.60;99.90;;;;;;5032306;28;20212;-53
2023/09/26 11:46:43;;;;;;;10.90;10.20;;;20.60;99.90;;;;;;5033677;28;20634;-53
2023/09/26 11:49:12;;;;;;;12.07;11.27;;;20.50;99.90;;;;;;5031802;28;20223;-53
2023/09/26 11:51:40;;;;;;;11.93;11.13;;;20.30;99.90;;;;;;5033864;28;20222;-52
2023/09/26 11:54:07;;;;;;;12.50;11.47;;;20.10;99.90;;;;;;5033995;28;20249;-53
2023/09/26 11:56:35;;;;;;;11.47;10.57;;;20.00;99.90;;;;;;5033780;28;20198;-52
2023/09/26 11:59:04;;;;;;;12.33;11.43;;;20.10;99.90;;;;;;5033795;28;20288;-53
2023/09/26 12:01:31;;;;;;;11.50;10.70;;;19.90;99.90;;;;;;5033795;28;20681;-52
2023/09/26 12:03:58;;;;;;;12.83;11.80;;;19.90;99.90;;;;;;5033902;28;20280;-53
2023/09/26 12:06:25;;;;;;;13.00;12.00;;;19.90;99.90;;;;;;5030922;28;20244;-53
2023/09/26 12:08:53;;;;;;;12.93;11.77;;;19.80;99.90;;;;;;5029162;28;20749;-52
2023/09/26 12:11:20;;;;;;;12.63;11.63;;;19.70;99.90;;;;;;5033727;28;20747;-52
2023/09/26 12:13:47;;;;;;;13.20;11.93;;;19.70;99.90;;;;;;5033855;28;20552;-52
2023/09/26 12:16:14;;;;;;;13.33;12.30;;;19.80;99.90;;;;;;5032023;28;20199;-52
2023/09/26 12:18:41;;;;;;;11.60;10.70;;;19.90;99.90;;;;;;5033403;28;20202;-52
2023/09/26 12:21:09;;;;;;;12.47;11.57;;;19.90;99.90;;;;;;5031831;28;20654;-54
2023/09/26 12:23:37;;;;;;;12.00;11.03;;;19.90;99.90;;;;;;5029459;28;20202;-54
2023/09/26 12:47:02;;;;;;;8.40;7.80;;;19.90;99.90;;;;;;5025382;27;1418281;-52
2023/09/26 12:49:29;;;;;;;9.30;8.60;;;19.90;99.90;;;;;;5082275;28;20613;-53
2023/09/26 12:51:56;;;;;;;10.63;9.93;;;20.00;99.90;;;;;;5068037;28;20259;-53
2023/09/26 12:54:23;;;;;;;9.60;8.70;;;19.80;99.90;;;;;;5062118;28;20197;-53
2023/09/26 12:56:50;;;;;;;9.13;8.53;;;19.80;99.90;;;;;;5068697;28;20220;-53
2023/09/26 12:59:17;;;;;;;9.67;8.80;;;19.80;99.90;;;;;;5077350;28;20197;-54
2023/09/26 13:01:44;;;;;;;8.70;8.07;;;19.70;99.90;;;;;;5068119;28;20247;-53
2023/09/26 13:04:13;;;;;;;9.70;8.93;;;19.70;99.90;;;;;;5073048;28;20243;-53
2023/09/26 13:06:40;;;;;;;8.97;8.27;;;19.90;99.90;;;;;;5078449;28;20585;-53
2023/09/26 13:09:07;;;;;;;8.47;7.87;;;20.00;99.90;;;;;;5076839;28;20246;-53
2023/09/26 13:11:34;;;;;;;10.43;9.53;;;19.80;99.90;;;;;;5076805;28;20200;-53
2023/09/26 13:14:01;;;;;;;10.73;9.63;;;19.80;99.90;;;;;;5072155;28;20201;-53